PENO2: Grand Lake O' The Cherokees, Pensacola Dm

Data processed at Wed Mar 07 2018 23:32


All information presented herein is the property of the government of the United States of America and may be revised or deleted at any time without prior notice.
Dissemination of this information without the expressed written consent of the Public Affairs Office, Tulsa District U.S. Army Corps of Engineers is strictly prohibited.
These data are gathered electronically and, as presented, have not undergone any form of quality control. These data are not guaranteed to be valid or correct.
Go to home page.
Go to station list.

Upstream stations:

Downstream station:
Previous Day
Next Day
Current Day
    
SHEF ID:       PENO2     Lake O' the Cherokees at Langley
STATION TYPE:  RESERVOIR

               PRECIP ELEVATION   STORAGE    INFLOW   RELEASE  AIR-TEMP  WIND-DIRWIND-SPEED REL-HUMID SOLAR-RAD   VOLTAGE  BAT-LOAD
                   in        ft     ac-ft       cfs       cfs         F       deg       mph         %      W/m2      volt      volt
              Ccp-Rev   Ccp-Rev   Ccp-Rev  Regi-Rev  Regi-Rev   Ccp-Rev   Ccp-Rev   Ccp-Rev   Ccp-Rev   Ccp-Rev   Ccp-Rev   Ccp-Rev
(US/Central)
03/05 00:00      0.00    744.62   1499630      8847     11324     56.44    172.31      3.39     71.67      0.00     12.81     12.49
03/05 01:00      0.00    744.58   1497970      8813     11544     56.68    163.49      3.07     71.24      0.00     12.80     12.49
03/05 02:00      0.00    744.62   1499630      7947     11552     57.29    176.93      2.89     71.12      0.00     12.79     12.49
03/05 03:00      0.00    744.60   1498800      7081     11320     58.37    166.16      2.85     72.82      0.00     12.78     12.49
03/05 04:00      0.00    744.58   1497970      6489     11547     60.64    166.76      4.12     75.82      0.00     12.77     12.49
03/05 05:00      0.00    744.55   1496725       548     11442     61.57    167.16      4.69     77.93      0.00     12.76     12.41
03/05 06:00      0.00    744.55   1496725      2165     11340     63.32    161.48      6.33     78.79      0.00     12.76     12.41
03/05 07:00      0.00    744.53   1495895      3782     11444     63.55    159.38      6.53     80.76      0.00     12.76     12.41
03/05 08:00      0.00    744.54   1496310      4067     11559     63.82    173.92      7.53     81.34     23.08     12.75     12.41
03/05 09:00      0.00    744.43   1491745      4028     11452     58.57    246.57     12.72     72.66    149.54     12.74     12.41
03/05 10:00      0.00    744.49   1494235      3755     11331     53.15    284.72     11.83     58.66    358.61     12.73     12.41
03/05 11:00      0.00    744.57   1497555      2137     11550     56.35    291.34     15.16     42.76    604.16     12.70     12.41
03/05 12:00      0.00    744.53   1495895      5594     11438     57.04    271.07     14.30     38.97    705.70     12.70     12.41
03/05 13:00      0.00    744.41   1490915      5448     11455     57.02    267.55     13.36     35.62    737.84     12.69     12.41
03/05 14:00      0.00    744.49   1494235      5351     11448     57.60    268.80     13.56     31.49    685.58     12.67     12.33
03/05 15:00      0.00    744.49   1494235      5351     11448     59.27    276.60     12.51     20.44    620.11     12.67     12.33
03/05 16:00      0.00    744.45   1492575      7118     11450     60.10    274.79     12.97     15.04    483.13     12.64     12.33
03/05 17:00      0.00    744.41   1490915      2928     11458     60.01    272.07     11.40     14.04    303.69     12.65     12.33
03/05 18:00      0.00    744.44   1492160      3672     11457     58.71    270.17     10.97     15.24     86.10     12.48     12.33
03/05 19:00      0.00    744.44   1492160      3662     11450     56.05    281.20      7.64     18.40      0.00     12.64     12.33
03/05 20:00      0.00    744.43   1491745      4297     11454     53.58    291.12      5.12     21.28      0.00     12.63     12.33
03/05 21:00      0.00    744.41   1490915      3165     11345     51.73    273.89      3.08     22.20      0.00     12.62     12.33
03/05 22:00      0.00    744.40   1490500      2906     11454     49.59    195.22      2.19     27.45      0.00     13.38     13.05
03/05 23:00      0.00    744.39   1490085      2670     11450     46.00    126.75      1.90     38.00      0.00     13.49     12.97